Hlavní strana
METAR-TAF:

METAR-TAF

Letiště :

Brjansk, Rusko

zeměpisná šířka: 53-15N, zeměpisná délka: 034-19E, výška: 217 m

Aktuální stav počasí

Zpráva byla vytvořena před 28 minutami, v 20:00 UTC
Severoseverovýchodní vítr 4 kt
Teplota 17°C
Vlhkost vzduchu 82%
Tlak 1022 hPa
Viditelnost 10 km a více

METAR: UUBP 102000Z AUTO 02002MPS 9999 NCD 17/14 Q1022

Čas: 23:28 (20:28 UTC)

Předpověď počasí

Zpráva byla vytvořena před 6 hodinami a 45 minutami, v 13:43 UTC
Předpověď platná od 10 v 15 UTC do 10 v 24 UTC
Severoseverovýchodní vítr 8 kt s nárazy do 17 kt
Viditelnost 10 km a více
Polojasno ve výšce 2500 ft
Dočasný
od 10 v 15 UTC do 10 v 18 UTC
Viditelnost: 4000 m
Polojasno ve výšce 1000 ft
Oblačno až skoro zataženo ve výšce 1600 ft, Cumulonimbus.
slabé dešťové přeháňky

TAF: UUBP 101343Z 1015/1024 02004G09MPS 9999 SCT025 TEMPO 1015/1018 4000 -SHRA SCT010 BKN016CB

Stav a předpovědi počasí z více než 4 000 letišť (zprávy METAR a TAF).

Červené a žluté tečky na mapě představují dostupné meteorologické stanice.

Když kurzor umístíte na tečku, zobrazí se název stanice.

Pak kliknutím zobrazíte stav a předpověď počasí.

Chcete-li změnit mapu, kliknutím na zelené tlačítko se znaménkem +mapu přiblížíte, kliknutím na zelené tlačítko se znaménkem – mapu oddálíte a kliknutím na zelené šipky přejdete na sousední mapy.


METAR-TAF: